Eddyville, Iowa
Current Conditions -  °F | °C
As of 2:15 AM on Tuesday 27 Jan 2015 (Local Time) from KOOA Reporting Station
Clear Clear  
Wind Chill: 25°   Ceiling: Unl
Heat Index: 32°   Visibility: 10mi
Dew Point: 30°   Wind: 8mph
Humidity: 91%   Direction: 320°NW
Pressure: 30.02"   Gusts: NA
Location:  41.16°N, 92.63°W
Report Text: KOOA 270815Z AUTO 32007KT 10SM CLR 00/M01 A3002 RMK AO2 T00011012
Loading
Personal Weather Stations






























Interactive Weather Map New forecast layout! Learn more

10-Day Weather Forecast

Advertisements
Track Severe Weather on mobile